Time;durP1;ratioP1;P1;durP2;ratioP2;P2;SDS_P1;SDS_P2;PMS_P1;PMS_P2;Temp;Humidity;BMP_temperature;BMP_pressure;BME280_temperature;BME280_humidity;BME280_pressure;Samples;Min_cycle;Max_cycle;Signal;HPM_P1;HPM_P2
2021/08/11 00:01:54;;;;;;;9.70;3.40;;;17.30;99.90;;;;;;5012724;28;20037;-94
2021/08/11 00:04:51;;;;;;;5.75;2.92;;;17.30;99.90;;;;;;5009916;28;20029;-95
2021/08/11 00:07:49;;;;;;;8.80;3.22;;;17.30;99.90;;;;;;5010822;28;20137;-96
2021/08/11 00:10:41;;;;;;;12.27;3.75;;;17.20;99.90;;;;;;5012310;28;20042;-94
2021/08/11 00:13:21;;;;;;;8.63;3.42;;;17.20;99.90;;;;;;5011103;28;20026;-93
2021/08/11 00:16:05;;;;;;;11.32;3.72;;;17.20;99.90;;;;;;5011418;28;20515;-95
2021/08/11 00:18:45;;;;;;;8.23;3.63;;;17.20;99.90;;;;;;5010423;28;20080;-95
2021/08/11 00:21:28;;;;;;;5.32;3.72;;;17.20;99.90;;;;;;5010084;28;20036;-96
2021/08/11 00:24:17;;;;;;;7.28;3.80;;;17.20;99.90;;;;;;5011738;28;20440;-95
2021/08/11 00:27:09;;;;;;;8.90;3.60;;;17.10;99.90;;;;;;5011749;28;20038;-95
2021/08/11 00:30:03;;;;;;;8.75;3.42;;;17.00;99.90;;;;;;5011325;28;20030;-94
2021/08/11 00:33:04;;;;;;;10.90;4.18;;;17.00;99.90;;;;;;5010575;28;20026;-95
2021/08/11 00:35:46;;;;;;;9.45;3.72;;;17.00;99.90;;;;;;5012149;28;20022;-94
2021/08/11 00:38:48;;;;;;;8.27;3.90;;;17.00;99.90;;;;;;5010641;28;20030;-95
2021/08/11 00:41:47;;;;;;;8.45;3.83;;;17.00;99.90;;;;;;5011675;28;20030;-94
2021/08/11 00:44:38;;;;;;;7.65;4.03;;;16.90;99.90;;;;;;5014105;28;20092;-95
2021/08/11 00:47:35;;;;;;;10.90;5.38;;;16.90;99.90;;;;;;5013594;28;20041;-96
2021/08/11 00:50:34;;;;;;;10.07;4.55;;;16.90;99.90;;;;;;5023539;28;20113;-96
2021/08/11 00:53:22;;;;;;;6.03;4.28;;;16.90;99.90;;;;;;5034321;28;20522;-94
2021/08/11 00:56:18;;;;;;;7.28;4.70;;;16.80;99.90;;;;;;5035415;28;20030;-95
2021/08/11 00:59:30;;;;;;;11.27;5.32;;;16.80;99.90;;;;;;5033905;28;20041;-95
2021/08/11 01:02:36;;;;;;;8.85;5.22;;;16.80;99.90;;;;;;5033134;28;20125;-95
2021/08/11 01:05:20;;;;;;;7.33;4.70;;;16.80;99.90;;;;;;5034180;28;20036;-95
2021/08/11 01:08:20;;;;;;;8.63;4.93;;;16.70;99.90;;;;;;5032502;28;20037;-95
2021/08/11 01:11:17;;;;;;;9.93;5.18;;;16.70;99.90;;;;;;5037159;28;20040;-96
2021/08/11 01:14:05;;;;;;;10.57;4.50;;;16.70;99.90;;;;;;5033412;28;20041;-95
2021/08/11 01:17:02;;;;;;;11.55;4.93;;;16.70;99.90;;;;;;5033268;28;20034;-95
2021/08/11 01:20:11;;;;;;;11.40;4.85;;;16.60;99.90;;;;;;5032491;28;20068;-95
2021/08/11 01:23:26;;;;;;;8.10;4.75;;;16.60;99.90;;;;;;5035467;28;20069;-96
2021/08/11 01:26:29;;;;;;;8.68;4.70;;;16.60;99.90;;;;;;5032811;28;20038;-96
2021/08/11 01:29:53;;;;;;;10.55;4.95;;;16.50;99.90;;;;;;5033156;28;20037;-96
2021/08/11 01:32:54;;;;;;;8.00;4.07;;;16.50;99.90;;;;;;5032004;28;20033;-94
2021/08/11 01:35:51;;;;;;;8.02;4.55;;;16.50;99.90;;;;;;5036540;28;20272;-93
2021/08/11 01:38:56;;;;;;;12.32;4.90;;;16.50;99.90;;;;;;5033441;28;20041;-95
2021/08/11 01:42:03;;;;;;;9.93;4.28;;;16.50;99.90;;;;;;5032714;28;20408;-96
2021/08/11 01:45:33;;;;;;;13.93;4.53;;;16.40;99.90;;;;;;5032070;28;20532;-95
2021/08/11 01:48:47;;;;;;;10.20;4.82;;;16.30;99.90;;;;;;5035487;28;20125;-96
2021/08/11 01:51:45;;;;;;;9.32;5.03;;;16.30;99.90;;;;;;5026119;28;20042;-95
2021/08/11 01:54:38;;;;;;;7.15;4.53;;;16.30;99.90;;;;;;5013193;28;20040;-94
2021/08/11 01:57:51;;;;;;;10.80;5.20;;;16.20;99.90;;;;;;5013481;28;20413;-96
2021/08/11 02:00:49;;;;;;;9.10;5.45;;;16.20;99.90;;;;;;5012903;28;20076;-95
2021/08/11 02:04:05;;;;;;;7.40;5.90;;;16.20;99.90;;;;;;5015021;28;20034;-96
2021/08/11 02:07:00;;;;;;;11.52;5.30;;;16.20;99.90;;;;;;5011867;28;20049;-95
2021/08/11 02:10:01;;;;;;;9.95;5.40;;;16.10;99.90;;;;;;5010710;28;20042;-96
2021/08/11 02:12:59;;;;;;;10.90;5.28;;;16.10;99.90;;;;;;5010826;28;20038;-94
2021/08/11 02:15:45;;;;;;;11.00;5.78;;;16.10;99.90;;;;;;5009004;28;20512;-95
2021/08/11 02:18:22;;;;;;;9.63;5.65;;;16.10;99.90;;;;;;5011732;28;20093;-96
2021/08/11 02:21:25;;;;;;;9.90;5.68;;;16.00;99.90;;;;;;5012748;28;20034;-96
2021/08/11 02:24:33;;;;;;;12.15;5.90;;;16.00;99.90;;;;;;5016899;28;20034;-95
2021/08/11 02:27:37;;;;;;;7.00;5.32;;;16.00;99.90;;;;;;5010249;28;20042;-94
2021/08/11 02:30:40;;;;;;;12.52;6.18;;;16.00;99.90;;;;;;5013333;28;20125;-96
2021/08/11 02:33:24;;;;;;;11.38;5.65;;;15.90;99.90;;;;;;5012234;28;20034;-95
2021/08/11 02:36:31;;;;;;;12.13;6.05;;;15.90;99.90;;;;;;5013064;28;20064;-96
2021/08/11 02:39:17;;;;;;;8.55;5.45;;;15.90;99.90;;;;;;5011435;28;20455;-95
2021/08/11 02:42:30;;;;;;;9.75;6.20;;;15.80;99.90;;;;;;5012374;28;20108;-96
2021/08/11 02:45:31;;;;;;;12.23;6.22;;;15.80;99.90;;;;;;5012146;28;20046;-95
2021/08/11 02:48:05;;;;;;;12.55;6.50;;;15.70;99.90;;;;;;5013646;28;20121;-95
2021/08/11 02:51:01;;;;;;;8.07;6.22;;;15.70;99.90;;;;;;5012068;28;20045;-96
2021/08/11 02:53:54;;;;;;;12.60;6.53;;;15.60;99.90;;;;;;5010954;28;20520;-96
2021/08/11 02:57:05;;;;;;;13.18;7.35;;;15.60;99.90;;;;;;5014539;28;20030;-96
2021/08/11 03:00:11;;;;;;;12.52;7.13;;;15.60;99.90;;;;;;5012389;28;20018;-96
2021/08/11 03:03:26;;;;;;;13.73;6.80;;;15.60;99.90;;;;;;5012956;28;20034;-96
2021/08/11 03:06:31;;;;;;;12.18;7.38;;;15.60;99.90;;;;;;5014006;28;20030;-95
2021/08/11 03:09:43;;;;;;;13.60;7.72;;;15.60;99.90;;;;;;5009008;28;20033;-96
2021/08/11 03:13:11;;;;;;;13.82;7.75;;;15.50;99.90;;;;;;5011725;28;20520;-95
2021/08/11 03:16:18;;;;;;;11.30;7.25;;;15.60;99.90;;;;;;5011512;28;20136;-96
2021/08/11 03:19:22;;;;;;;13.48;7.78;;;15.50;99.90;;;;;;5013339;28;20038;-95
2021/08/11 03:22:14;;;;;;;11.43;7.10;;;15.50;99.90;;;;;;5010453;28;20042;-95
2021/08/11 03:25:22;;;;;;;11.30;7.15;;;15.50;99.90;;;;;;5010079;28;20037;-96
2021/08/11 03:28:32;;;;;;;12.23;8.05;;;15.40;99.90;;;;;;5011845;28;20037;-96
2021/08/11 03:32:03;;;;;;;11.68;8.07;;;15.40;99.90;;;;;;5011792;28;20121;-95
2021/08/11 03:35:17;;;;;;;10.60;8.38;;;15.30;99.90;;;;;;5011728;28;20156;-95
2021/08/11 03:38:30;;;;;;;16.75;8.73;;;15.30;99.90;;;;;;5008240;28;20041;-96
2021/08/11 03:41:30;;;;;;;16.00;8.85;;;15.30;99.90;;;;;;5009556;28;20045;-95
2021/08/11 03:44:53;;;;;;;15.15;8.77;;;15.30;99.90;;;;;;5010835;28;20417;-96
2021/08/11 03:48:03;;;;;;;14.93;8.80;;;15.20;99.90;;;;;;5009536;28;20368;-96
2021/08/11 03:51:19;;;;;;;14.25;8.75;;;15.20;99.90;;;;;;5012291;28;20052;-96
2021/08/11 03:54:47;;;;;;;11.45;8.43;;;15.20;99.90;;;;;;5009261;28;20072;-96
2021/08/11 03:57:59;;;;;;;11.18;8.20;;;15.10;99.90;;;;;;5003445;28;20034;-95
2021/08/11 04:01:19;;;;;;;17.65;9.15;;;15.10;99.90;;;;;;5012845;28;20038;-95
2021/08/11 04:04:40;;;;;;;19.75;9.88;;;15.10;99.90;;;;;;5010979;28;20452;-96
2021/08/11 04:07:50;;;;;;;16.15;9.18;;;15.20;99.90;;;;;;5009778;28;20057;-96
2021/08/11 04:10:54;;;;;;;15.73;8.77;;;15.20;99.90;;;;;;5009402;28;20133;-96
2021/08/11 04:14:02;;;;;;;13.73;8.88;;;15.10;99.90;;;;;;5013963;28;20057;-96
2021/08/11 04:17:31;;;;;;;20.00;9.30;;;15.10;99.90;;;;;;5009011;28;20042;-96
2021/08/11 04:20:25;;;;;;;16.27;9.93;;;15.10;99.90;;;;;;5016108;28;20034;-95
2021/08/11 04:23:27;;;;;;;16.90;8.90;;;15.20;99.90;;;;;;5016026;28;20042;-96
2021/08/11 04:26:21;;;;;;;16.98;10.48;;;15.10;99.90;;;;;;5014895;28;20413;-94
2021/08/11 04:29:27;;;;;;;16.58;9.63;;;15.10;99.90;;;;;;5014346;28;20106;-96
2021/08/11 04:32:25;;;;;;;18.05;9.30;;;15.10;99.90;;;;;;5015531;28;20034;-96
2021/08/11 04:35:38;;;;;;;20.45;10.70;;;15.10;99.90;;;;;;5026844;28;20037;-96
2021/08/11 04:38:56;;;;;;;19.75;9.93;;;15.10;99.90;;;;;;5015202;28;20030;-96
2021/08/11 04:42:12;;;;;;;17.27;9.93;;;15.10;99.90;;;;;;5013851;28;20187;-96
2021/08/11 04:45:25;;;;;;;24.65;10.98;;;15.10;99.90;;;;;;5008331;28;20046;-96
2021/08/11 04:48:17;;;;;;;18.98;9.98;;;15.00;99.90;;;;;;5017357;28;20061;-96
2021/08/11 04:51:11;;;;;;;28.00;10.70;;;15.00;99.90;;;;;;5010015;28;20073;-95
2021/08/11 04:54:27;;;;;;;20.02;11.18;;;15.10;99.90;;;;;;5014861;28;20034;-95
2021/08/11 04:57:34;;;;;;;25.42;10.65;;;15.00;99.90;;;;;;5016831;28;20045;-96
2021/08/11 05:00:35;;;;;;;20.55;10.73;;;15.00;99.90;;;;;;5014027;28;20416;-95
2021/08/11 05:03:48;;;;;;;18.40;10.57;;;15.00;99.90;;;;;;5013803;28;20034;-96
2021/08/11 05:07:09;;;;;;;26.38;11.68;;;15.00;99.90;;;;;;5015578;28;20041;-95
2021/08/11 05:10:23;;;;;;;19.70;11.10;;;15.10;99.90;;;;;;5019889;28;20061;-96
2021/08/11 05:13:42;;;;;;;21.63;11.77;;;15.10;99.90;;;;;;5010492;28;20281;-96
2021/08/11 05:16:53;;;;;;;19.38;10.68;;;15.10;99.90;;;;;;5011300;28;20069;-96
2021/08/11 05:20:08;;;;;;;19.35;10.80;;;15.10;99.90;;;;;;5017036;28;20500;-96
2021/08/11 05:23:19;;;;;;;22.05;10.90;;;15.00;99.90;;;;;;5013704;28;20038;-96
2021/08/11 05:26:47;;;;;;;17.83;10.85;;;15.00;99.90;;;;;;5016646;28;20170;-94
2021/08/11 05:29:42;;;;;;;25.90;11.35;;;15.00;99.90;;;;;;5013198;28;20034;-96
2021/08/11 05:32:43;;;;;;;22.73;12.02;;;15.00;99.90;;;;;;5012733;28;20034;-94
2021/08/11 05:35:29;;;;;;;20.52;11.85;;;15.10;99.90;;;;;;5012636;28;20085;-94
2021/08/11 05:38:38;;;;;;;16.50;11.05;;;15.20;99.90;;;;;;5017886;28;20026;-95
2021/08/11 05:41:50;;;;;;;23.90;11.98;;;15.20;99.90;;;;;;5005776;28;20034;-94
2021/08/11 05:44:29;;;;;;;20.50;11.35;;;15.20;99.90;;;;;;5034657;22;20187;-74
2021/08/11 05:46:54;;;;;;;21.50;11.63;;;15.20;99.90;;;;;;5031803;28;20478;-74
2021/08/11 05:49:20;;;;;;;18.45;10.45;;;15.30;99.90;;;;;;5030079;28;20052;-74
2021/08/11 05:51:46;;;;;;;19.67;11.00;;;15.40;99.90;;;;;;5018909;28;20021;-74
2021/08/11 05:54:12;;;;;;;18.10;10.45;;;15.40;99.90;;;;;;5012959;28;20029;-74
2021/08/11 05:56:37;;;;;;;24.27;11.18;;;15.40;99.90;;;;;;5017141;28;20032;-74
2021/08/11 05:59:03;;;;;;;14.23;10.20;;;15.50;99.90;;;;;;5029493;28;20037;-74
2021/08/11 06:01:28;;;;;;;19.25;9.65;;;15.50;99.90;;;;;;5030281;28;20033;-74
2021/08/11 06:04:01;;;;;;;18.08;9.52;;;15.50;99.90;;;;;;5030803;28;20045;-74
2021/08/11 06:06:27;;;;;;;11.90;9.02;;;15.50;99.90;;;;;;5025768;28;20411;-74
2021/08/11 06:08:54;;;;;;;14.57;9.05;;;15.60;99.90;;;;;;5030860;28;20033;-74
2021/08/11 06:11:19;;;;;;;12.32;8.48;;;15.60;99.90;;;;;;5032036;28;20492;-74
2021/08/11 06:13:45;;;;;;;13.82;8.15;;;15.70;99.90;;;;;;5030554;28;20033;-74
2021/08/11 06:16:11;;;;;;;11.60;8.40;;;15.70;99.90;;;;;;5026160;28;20033;-74
2021/08/11 06:18:36;;;;;;;11.25;7.97;;;15.80;99.90;;;;;;5028745;28;20033;-74
2021/08/11 06:21:03;;;;;;;9.85;7.30;;;15.90;99.90;;;;;;5027017;28;20156;-74
2021/08/11 06:23:29;;;;;;;15.07;7.90;;;15.90;99.90;;;;;;5031105;28;20586;-74
2021/08/11 06:25:55;;;;;;;11.18;7.32;;;16.00;99.90;;;;;;5030561;28;20026;-74
2021/08/11 06:28:21;;;;;;;11.05;7.80;;;16.10;99.90;;;;;;5030363;28;20026;-74
2021/08/11 06:30:46;;;;;;;12.15;7.65;;;16.20;99.90;;;;;;5031636;28;20037;-74
2021/08/11 06:33:12;;;;;;;8.52;6.80;;;16.20;99.90;;;;;;5031300;28;20030;-74
2021/08/11 06:35:38;;;;;;;11.55;7.95;;;16.30;99.90;;;;;;5029773;28;20091;-74
2021/08/11 06:38:03;;;;;;;11.70;6.97;;;16.40;99.90;;;;;;5030343;28;20594;-74
2021/08/11 06:40:30;;;;;;;10.35;6.63;;;16.50;99.90;;;;;;5029390;28;20113;-74
2021/08/11 06:42:57;;;;;;;10.88;6.70;;;16.60;99.90;;;;;;5030867;28;20030;-74
2021/08/11 06:45:22;;;;;;;8.50;6.32;;;16.70;99.90;;;;;;5031780;28;20060;-73
2021/08/11 06:47:48;;;;;;;11.68;6.97;;;16.70;99.90;;;;;;5029289;28;20025;-74
2021/08/11 06:50:14;;;;;;;12.40;6.65;;;16.80;99.90;;;;;;5027957;28;20056;-74
2021/08/11 06:52:40;;;;;;;13.60;6.40;;;16.80;99.90;;;;;;5018627;28;20056;-74
2021/08/11 06:55:09;;;;;;;10.20;6.03;;;16.90;99.90;;;;;;5025410;28;20492;-73
2021/08/11 06:57:35;;;;;;;8.43;6.30;;;16.90;99.90;;;;;;5027456;28;20480;-74
2021/08/11 07:00:02;;;;;;;7.65;6.25;;;17.00;99.90;;;;;;5029111;28;20032;-75
2021/08/11 07:02:28;;;;;;;6.63;5.32;;;17.00;99.90;;;;;;5027216;28;20025;-75
2021/08/11 07:04:53;;;;;;;6.45;5.65;;;17.10;99.90;;;;;;5022181;28;20095;-74
2021/08/11 07:07:19;;;;;;;6.43;5.45;;;17.20;99.90;;;;;;5020685;28;20034;-75
2021/08/11 07:09:45;;;;;;;5.55;5.00;;;17.30;99.90;;;;;;5027174;28;20026;-75
2021/08/11 07:12:10;;;;;;;5.40;4.90;;;17.50;99.90;;;;;;5015932;28;20033;-75
2021/08/11 07:14:36;;;;;;;8.20;5.78;;;17.50;99.90;;;;;;5017820;28;20025;-75
2021/08/11 07:17:02;;;;;;;5.68;5.07;;;17.60;99.90;;;;;;5026623;28;20112;-75
2021/08/11 07:19:27;;;;;;;5.85;4.90;;;17.70;99.90;;;;;;5025506;28;20032;-75
2021/08/11 07:21:53;;;;;;;5.55;4.90;;;17.80;99.90;;;;;;5026077;28;20037;-75
2021/08/11 07:24:20;;;;;;;8.10;4.65;;;17.90;99.90;;;;;;5017663;28;20137;-75
2021/08/11 07:26:45;;;;;;;6.55;4.63;;;18.10;99.90;;;;;;5026142;28;20029;-75
2021/08/11 07:29:11;;;;;;;6.65;4.20;;;18.20;99.90;;;;;;5028545;28;20043;-74
2021/08/11 07:31:37;;;;;;;6.00;4.50;;;18.30;99.90;;;;;;5028378;28;20109;-75
2021/08/11 07:34:03;;;;;;;4.68;4.20;;;18.50;99.90;;;;;;5027485;28;20031;-75
2021/08/11 07:36:29;;;;;;;5.20;4.35;;;18.50;99.90;;;;;;5030293;28;20022;-75
2021/08/11 07:38:55;;;;;;;7.60;3.70;;;18.50;99.90;;;;;;5019947;28;20036;-76
2021/08/11 07:41:20;;;;;;;6.88;3.95;;;18.60;99.90;;;;;;5028561;28;20488;-75
2021/08/11 07:43:46;;;;;;;4.00;3.60;;;18.70;99.90;;;;;;5029273;28;20056;-75
2021/08/11 07:46:12;;;;;;;5.43;3.80;;;19.00;99.90;;;;;;5027320;28;20026;-76
2021/08/11 07:48:37;;;;;;;4.90;3.38;;;19.00;99.90;;;;;;5043161;28;20047;-75
2021/08/11 07:51:03;;;;;;;4.35;3.25;;;19.20;99.90;;;;;;5021520;28;20035;-75
2021/08/11 07:53:29;;;;;;;6.35;2.55;;;19.50;99.90;;;;;;5023641;28;20030;-75
2021/08/11 07:55:55;;;;;;;3.78;2.42;;;19.70;99.90;;;;;;5021724;28;20503;-76
2021/08/11 07:58:24;;;;;;;2.42;2.22;;;20.20;99.90;;;;;;5025885;28;20902;-76
2021/08/11 08:00:50;;;;;;;3.17;1.75;;;21.80;99.90;;;;;;5020579;28;20033;-76
2021/08/11 08:03:16;;;;;;;3.72;1.90;;;24.50;99.90;;;;;;5032515;28;20053;-76
2021/08/11 08:05:42;;;;;;;6.40;1.67;;;26.30;99.90;;;;;;5029600;28;20524;-76
2021/08/11 08:08:08;;;;;;;1.48;1.38;;;28.00;99.30;;;;;;5027957;28;20029;-76
2021/08/11 08:10:34;;;;;;;2.10;1.45;;;28.50;97.60;;;;;;5027491;28;20522;-76
2021/08/11 08:12:59;;;;;;;4.70;1.48;;;28.80;96.30;;;;;;5023211;28;20029;-76
2021/08/11 08:15:28;;;;;;;1.40;1.10;;;29.00;95.20;;;;;;5026556;28;20033;-77
2021/08/11 08:17:53;;;;;;;3.67;1.27;;;29.10;94.40;;;;;;5018449;28;20048;-78
2021/08/11 08:20:19;;;;;;;1.55;1.20;;;29.30;94.50;;;;;;5029017;28;20057;-78
2021/08/11 08:22:46;;;;;;;1.67;1.20;;;29.60;93.60;;;;;;5013979;28;20113;-77
2021/08/11 08:25:12;;;;;;;4.15;1.30;;;29.90;93.70;;;;;;5026004;28;20060;-77
2021/08/11 08:27:39;;;;;;;1.40;1.17;;;30.50;92.50;;;;;;5020218;28;20523;-77
2021/08/11 08:30:07;;;;;;;1.20;1.10;;;31.40;91.30;;;;;;5014639;28;20112;-77
2021/08/11 08:32:32;;;;;;;2.28;1.00;;;31.40;90.40;;;;;;5021568;28;20448;-75
2021/08/11 08:34:58;;;;;;;2.45;1.00;;;31.40;90.60;;;;;;5025524;28;20025;-75
2021/08/11 08:37:32;;;;;;;4.00;1.33;;;31.60;89.70;;;;;;5027830;28;20107;-75
2021/08/11 08:40:21;;;;;;;1.40;1.30;;;32.30;89.10;;;;;;5021497;28;20403;-75
2021/08/11 08:42:46;;;;;;;2.88;1.13;;;32.80;86.90;;;;;;5014320;28;20039;-75
2021/08/11 08:45:13;;;;;;;3.25;1.60;;;32.80;84.60;;;;;;5023338;28;20112;-75
2021/08/11 08:47:40;;;;;;;1.23;1.23;;;32.70;85.80;;;;;;5021642;28;20080;-75
2021/08/11 08:50:08;;;;;;;2.45;1.30;;;33.30;84.30;;;;;;5014773;28;20049;-73
2021/08/11 08:52:34;;;;;;;1.35;1.30;;;32.80;83.50;;;;;;5013979;28;20048;-75
2021/08/11 08:55:00;;;;;;;2.70;1.30;;;33.00;82.70;;;;;;5027813;28;20559;-75
2021/08/11 08:57:27;;;;;;;1.50;1.40;;;33.10;82.20;;;;;;5029849;28;20029;-75
2021/08/11 08:59:53;;;;;;;2.35;1.40;;;33.50;81.20;;;;;;5031966;28;20037;-75
2021/08/11 09:02:19;;;;;;;1.98;1.30;;;33.50;82.30;;;;;;5019503;28;20079;-75
2021/08/11 09:04:44;;;;;;;1.25;1.20;;;33.40;81.20;;;;;;5029090;28;20715;-75
2021/08/11 09:07:16;;;;;;;1.40;1.30;;;33.80;80.60;;;;;;5027819;28;20031;-75
2021/08/11 09:09:42;;;;;;;2.85;1.33;;;33.40;82.30;;;;;;5025001;28;20029;-75
2021/08/11 09:12:08;;;;;;;1.80;1.63;;;33.80;80.00;;;;;;5015355;28;20106;-75
2021/08/11 09:14:36;;;;;;;2.15;1.70;;;34.00;80.90;;;;;;5029713;28;20056;-75
2021/08/11 09:17:02;;;;;;;1.63;1.52;;;33.70;80.10;;;;;;5027304;28;20029;-75
2021/08/11 09:19:44;;;;;;;1.60;1.50;;;33.30;80.50;;;;;;5023558;28;20041;-75
2021/08/11 09:22:12;;;;;;;1.88;1.70;;;33.90;80.90;;;;;;5025090;28;20104;-75
2021/08/11 09:24:40;;;;;;;3.17;1.70;;;33.80;80.80;;;;;;5029634;28;20079;-75
2021/08/11 09:27:20;;;;;;;5.57;2.05;;;34.00;79.30;;;;;;5026656;28;20021;-75
2021/08/11 09:30:00;;;;;;;1.90;1.80;;;34.30;78.80;;;;;;5029411;28;20033;-75
2021/08/11 09:32:26;;;;;;;2.45;1.80;;;34.60;78.20;;;;;;5024753;28;20025;-75
2021/08/11 09:34:54;;;;;;;1.95;1.80;;;34.20;79.00;;;;;;5029428;28;20034;-75
2021/08/11 09:37:39;;;;;;;2.65;2.05;;;34.10;80.40;;;;;;5020745;28;20109;-74
2021/08/11 09:40:25;;;;;;;2.15;1.98;;;34.40;79.40;;;;;;5030775;28;20447;-75
2021/08/11 09:42:54;;;;;;;1.90;1.80;;;34.80;79.80;;;;;;5020208;28;20025;-75
2021/08/11 09:45:20;;;;;;;3.00;1.80;;;34.50;78.40;;;;;;5025307;28;20389;-75
2021/08/11 09:48:11;;;;;;;4.00;2.13;;;34.20;79.80;;;;;;5025980;28;20039;-75
2021/08/11 09:50:45;;;;;;;2.10;1.88;;;34.40;78.60;;;;;;5016171;28;20056;-75
2021/08/11 09:53:14;;;;;;;2.53;1.88;;;35.00;77.10;;;;;;5021439;28;20025;-75
2021/08/11 09:56:03;;;;;;;2.22;1.88;;;34.90;75.80;;;;;;5017893;28;20050;-74
2021/08/11 09:58:30;;;;;;;6.85;2.00;;;34.60;77.20;;;;;;5021201;28;20056;-74
2021/08/11 10:00:55;;;;;;;4.93;2.17;;;35.00;78.40;;;;;;5019662;28;20346;-74
2021/08/11 10:03:21;;;;;;;1.83;1.73;;;34.40;80.10;;;;;;5018137;28;20076;-75
2021/08/11 10:05:49;;;;;;;3.50;2.38;;;34.50;78.10;;;;;;5023572;28;20541;-74
2021/08/11 10:08:26;;;;;;;4.20;2.08;;;34.90;76.80;;;;;;5019486;28;20042;-74
2021/08/11 10:10:52;;;;;;;9.35;2.00;;;34.80;77.60;;;;;;5021913;28;20025;-74
2021/08/11 10:13:22;;;;;;;2.08;1.90;;;35.30;76.80;;;;;;5016659;28;20022;-74
2021/08/11 10:15:48;;;;;;;4.45;1.80;;;34.30;77.80;;;;;;5023661;28;20468;-74
2021/08/11 10:18:17;;;;;;;2.60;2.40;;;34.00;79.00;;;;;;5035007;28;20025;-74
2021/08/11 10:20:45;;;;;;;2.38;2.22;;;34.80;77.00;;;;;;5023768;28;20538;-74
2021/08/11 10:23:15;;;;;;;1.88;1.77;;;35.20;77.90;;;;;;5023359;28;20083;-74
2021/08/11 10:25:41;;;;;;;1.95;1.85;;;34.70;76.80;;;;;;5032358;28;20044;-74
2021/08/11 10:28:07;;;;;;;3.90;1.92;;;34.80;78.30;;;;;;5030307;28;20026;-74
2021/08/11 10:30:33;;;;;;;2.35;1.80;;;34.80;76.30;;;;;;5030325;28;20041;-75
2021/08/11 10:33:01;;;;;;;2.38;2.17;;;34.80;76.00;;;;;;5026093;28;20029;-73
2021/08/11 10:35:29;;;;;;;3.53;1.85;;;34.60;76.20;;;;;;5021683;28;20416;-74
2021/08/11 10:37:56;;;;;;;2.38;1.98;;;35.10;75.80;;;;;;5025351;28;20022;-74
2021/08/11 10:40:22;;;;;;;1.88;1.77;;;34.80;75.80;;;;;;5020783;28;20034;-74
2021/08/11 10:42:56;;;;;;;1.83;1.77;;;34.80;75.50;;;;;;5029871;28;20029;-74
2021/08/11 10:45:24;;;;;;;1.80;1.70;;;35.10;77.50;;;;;;5030075;28;20108;-74
2021/08/11 10:47:50;;;;;;;1.90;1.80;;;34.90;75.40;;;;;;5011324;28;20030;-74
2021/08/11 10:50:16;;;;;;;2.05;1.92;;;35.20;76.40;;;;;;5026037;28;20037;-74
2021/08/11 10:52:41;;;;;;;2.10;2.00;;;34.70;75.30;;;;;;5014912;28;20021;-74
2021/08/11 10:55:08;;;;;;;4.72;1.92;;;34.70;75.50;;;;;;5025799;28;20029;-74
2021/08/11 10:57:36;;;;;;;2.28;2.08;;;35.00;74.90;;;;;;5025081;28;20032;-74
2021/08/11 11:00:21;;;;;;;2.00;1.90;;;34.90;74.20;;;;;;5047036;28;20075;-73
2021/08/11 11:02:49;;;;;;;8.27;1.98;;;34.50;74.70;;;;;;5035994;28;20385;-74
2021/08/11 11:05:20;;;;;;;2.05;1.90;;;34.70;74.80;;;;;;5038434;28;20029;-74
2021/08/11 11:10:35;;;;;;;2.92;1.80;;;34.40;74.60;;;;;;5008129;28;20033;-73
2021/08/11 11:13:22;;;;;;;1.88;1.70;;;34.30;74.30;;;;;;5035873;28;20044;-73
2021/08/11 11:15:48;;;;;;;2.55;2.10;;;34.30;74.30;;;;;;5010072;28;20463;-73
2021/08/11 11:18:22;;;;;;;2.53;2.33;;;34.00;75.20;;;;;;5014988;28;20025;-73
2021/08/11 11:21:10;;;;;;;3.97;2.10;;;34.30;74.00;;;;;;5019677;28;20032;-74
2021/08/11 11:23:40;;;;;;;2.10;1.90;;;34.10;73.80;;;;;;5039302;28;20079;-73
2021/08/11 11:26:05;;;;;;;3.97;2.10;;;34.00;73.90;;;;;;5034149;28;20040;-74
2021/08/11 11:28:52;;;;;;;1.88;1.70;;;34.00;74.20;;;;;;5022964;28;20029;-74
2021/08/11 11:31:46;;;;;;;2.63;1.90;;;33.90;74.20;;;;;;5027695;28;20041;-74
2021/08/11 11:34:18;;;;;;;2.00;1.80;;;33.80;74.50;;;;;;5031747;28;20033;-74
2021/08/11 11:36:44;;;;;;;;;;;33.50;75.20;;;;;;5031414;28;20044;-74
2021/08/11 11:39:12;;;;;;;6.00;1.98;;;32.90;76.10;;;;;;5029168;28;19932;-73
2021/08/11 11:41:58;;;;;;;2.35;1.70;;;31.60;78.10;;;;;;5033881;28;20461;-73
2021/08/11 11:44:42;;;;;;;2.88;1.70;;;31.40;78.80;;;;;;5020836;28;20500;-73
2021/08/11 11:47:12;;;;;;;3.78;1.92;;;32.70;78.30;;;;;;5026711;28;20467;-74
2021/08/11 11:49:39;;;;;;;3.22;1.70;;;33.00;75.10;;;;;;5017255;28;20439;-73
2021/08/11 11:52:15;;;;;;;2.03;1.70;;;32.50;75.90;;;;;;5030833;28;20489;-73
2021/08/11 11:54:46;;;;;;;2.90;1.50;;;32.30;76.80;;;;;;5027109;28;20028;-73
2021/08/11 11:57:13;;;;;;;2.13;1.75;;;31.60;78.00;;;;;;5032364;28;20022;-75
2021/08/11 11:59:58;;;;;;;2.72;1.60;;;30.50;79.30;;;;;;5034660;28;20105;-75
2021/08/11 12:02:24;;;;;;;2.95;1.73;;;29.30;83.60;;;;;;5031704;28;20040;-76
2021/08/11 12:05:03;;;;;;;3.13;1.45;;;29.50;83.00;;;;;;5024720;28;20033;-76
2021/08/11 12:07:34;;;;;;;1.90;1.42;;;29.70;82.90;;;;;;5028857;28;20033;-76
2021/08/11 12:10:02;;;;;;;1.55;1.40;;;30.00;82.40;;;;;;5027138;28;20039;-76
2021/08/11 12:12:28;;;;;;;4.78;1.67;;;30.00;83.40;;;;;;5033130;28;20021;-76
2021/08/11 12:15:18;;;;;;;2.53;1.40;;;30.20;82.40;;;;;;5027551;28;20397;-75
2021/08/11 12:17:44;;;;;;;4.53;1.52;;;30.10;82.30;;;;;;5033493;28;20033;-75
2021/08/11 12:20:31;;;;;;;2.92;1.50;;;30.00;82.90;;;;;;5020452;28;20041;-75
2021/08/11 12:23:01;;;;;;;2.22;1.67;;;29.70;83.00;;;;;;5027940;28;20116;-76
2021/08/11 12:25:29;;;;;;;2.65;1.45;;;29.90;82.40;;;;;;5027906;28;20033;-76
2021/08/11 12:28:08;;;;;;;2.25;1.60;;;29.90;83.60;;;;;;5023027;28;20089;-76
2021/08/11 12:30:35;;;;;;;4.00;1.70;;;30.10;82.90;;;;;;5032463;28;20029;-75
2021/08/11 12:33:02;;;;;;;6.40;1.80;;;29.70;82.70;;;;;;5036224;28;20523;-75
2021/08/11 12:35:28;;;;;;;2.10;1.90;;;29.60;83.60;;;;;;5014708;28;20087;-75
2021/08/11 12:37:54;;;;;;;2.90;1.88;;;29.70;83.90;;;;;;5035214;28;20025;-75
2021/08/11 12:40:31;;;;;;;2.15;1.75;;;29.60;83.80;;;;;;5036035;28;20025;-76
2021/08/11 12:42:58;;;;;;;2.17;1.48;;;29.70;83.80;;;;;;5042690;28;20174;-75
2021/08/11 12:45:25;;;;;;;2.25;1.60;;;28.90;86.10;;;;;;5026640;28;20053;-74
2021/08/11 12:47:50;;;;;;;3.30;1.23;;;28.80;85.20;;;;;;5024612;28;20033;-74
2021/08/11 12:50:22;;;;;;;2.78;1.83;;;28.10;86.40;;;;;;5036487;28;20063;-75
2021/08/11 12:52:55;;;;;;;2.25;1.80;;;28.20;86.80;;;;;;5027299;28;20045;-75
2021/08/11 12:55:34;;;;;;;3.38;1.70;;;28.50;86.60;;;;;;5029475;28;20029;-75
2021/08/11 12:58:00;;;;;;;3.78;1.30;;;28.00;86.30;;;;;;5027890;28;20041;-74
2021/08/11 13:00:45;;;;;;;2.88;1.90;;;28.10;87.00;;;;;;5031676;28;20104;-75
2021/08/11 13:03:11;;;;;;;1.95;1.70;;;28.10;88.00;;;;;;5029161;28;20029;-74
2021/08/11 13:05:58;;;;;;;2.40;2.00;;;28.00;86.20;;;;;;5033279;28;20447;-74
2021/08/11 13:08:39;;;;;;;3.42;1.75;;;28.40;86.80;;;;;;5030864;28;20033;-75
2021/08/11 13:11:05;;;;;;;2.38;1.60;;;28.30;85.20;;;;;;5026220;28;20026;-75
2021/08/11 13:13:30;;;;;;;4.15;1.90;;;28.70;86.60;;;;;;5032294;28;20036;-76
2021/08/11 13:16:10;;;;;;;1.63;1.35;;;28.80;86.10;;;;;;5032604;28;20025;-75
2021/08/11 13:18:36;;;;;;;1.65;1.25;;;28.60;87.70;;;;;;5035076;28;20035;-75
2021/08/11 13:21:02;;;;;;;6.75;1.38;;;28.30;87.10;;;;;;5027900;28;20871;-75
2021/08/11 13:23:27;;;;;;;2.85;1.30;;;28.00;87.60;;;;;;5030422;28;20045;-75
2021/08/11 13:25:55;;;;;;;1.60;1.30;;;28.20;87.80;;;;;;5031189;28;20029;-76
2021/08/11 13:28:21;;;;;;;2.88;1.63;;;28.10;88.80;;;;;;5030696;28;20025;-75
2021/08/11 13:30:47;;;;;;;5.55;1.90;;;28.00;87.60;;;;;;5027105;28;20033;-76
2021/08/11 13:33:13;;;;;;;2.97;1.70;;;28.00;88.80;;;;;;5022864;28;20029;-75
2021/08/11 13:35:38;;;;;;;3.20;1.70;;;27.70;88.90;;;;;;5029772;28;20463;-75
2021/08/11 13:38:05;;;;;;;2.72;1.65;;;27.90;87.40;;;;;;5028413;28;20508;-75
2021/08/11 13:40:32;;;;;;;4.95;1.70;;;28.10;87.10;;;;;;5029149;28;20091;-75
2021/08/11 13:42:58;;;;;;;2.40;1.50;;;28.30;86.40;;;;;;5026847;28;20033;-75
2021/08/11 13:45:24;;;;;;;3.17;2.03;;;28.50;85.60;;;;;;5026359;28;20568;-75
2021/08/11 13:47:49;;;;;;;8.85;1.67;;;28.60;85.90;;;;;;5024547;28;20021;-75
2021/08/11 13:50:15;;;;;;;2.03;1.83;;;28.70;85.70;;;;;;5021045;28;20476;-75
2021/08/11 13:52:42;;;;;;;3.40;1.90;;;28.70;84.90;;;;;;5018096;28;20846;-75
2021/08/11 13:55:09;;;;;;;3.25;1.77;;;28.90;85.40;;;;;;5017956;28;20053;-75
2021/08/11 13:57:35;;;;;;;4.82;1.60;;;29.10;84.50;;;;;;5034873;28;20489;-75
2021/08/11 14:00:01;;;;;;;1.75;1.55;;;29.10;84.20;;;;;;5039034;28;20041;-76